sensor_id;sensor_type;location;lat;lon;timestamp;P1;durP1;ratioP1;P2;durP2;ratioP2
65375;SDS011;51976;47.332;9.404;2023-03-14T00:01:45;1.30;;;0.30;;
65375;SDS011;51976;47.332;9.404;2023-03-14T00:04:10;0.57;;;0.17;;
65375;SDS011;51976;47.332;9.404;2023-03-14T00:06:35;1.38;;;0.10;;
65375;SDS011;51976;47.332;9.404;2023-03-14T00:09:01;0.50;;;0.10;;
65375;SDS011;51976;47.332;9.404;2023-03-14T00:11:26;1.65;;;0.20;;
65375;SDS011;51976;47.332;9.404;2023-03-14T00:13:52;1.85;;;0.10;;
65375;SDS011;51976;47.332;9.404;2023-03-14T00:16:18;1.60;;;0.20;;
65375;SDS011;51976;47.332;9.404;2023-03-14T00:18:44;1.45;;;0.10;;
65375;SDS011;51976;47.332;9.404;2023-03-14T00:21:10;1.17;;;0.20;;
65375;SDS011;51976;47.332;9.404;2023-03-14T00:23:37;0.40;;;0.10;;
65375;SDS011;51976;47.332;9.404;2023-03-14T00:26:08;0.00;;;0.00;;
65375;SDS011;51976;47.332;9.404;2023-03-14T00:28:38;0.10;;;0.00;;
65375;SDS011;51976;47.332;9.404;2023-03-14T00:31:04;0.20;;;0.13;;
65375;SDS011;51976;47.332;9.404;2023-03-14T00:33:32;1.00;;;0.10;;
65375;SDS011;51976;47.332;9.404;2023-03-14T00:35:59;0.77;;;0.30;;
65375;SDS011;51976;47.332;9.404;2023-03-14T00:38:26;0.22;;;0.10;;
65375;SDS011;51976;47.332;9.404;2023-03-14T00:40:52;0.30;;;0.03;;
65375;SDS011;51976;47.332;9.404;2023-03-14T00:43:18;0.32;;;0.10;;
65375;SDS011;51976;47.332;9.404;2023-03-14T00:45:46;0.95;;;0.10;;
65375;SDS011;51976;47.332;9.404;2023-03-14T00:48:12;1.45;;;0.00;;
65375;SDS011;51976;47.332;9.404;2023-03-14T00:50:38;0.20;;;0.00;;
65375;SDS011;51976;47.332;9.404;2023-03-14T00:53:03;0.75;;;0.05;;
65375;SDS011;51976;47.332;9.404;2023-03-14T00:55:29;0.20;;;0.00;;
65375;SDS011;51976;47.332;9.404;2023-03-14T00:57:54;1.67;;;0.00;;
65375;SDS011;51976;47.332;9.404;2023-03-14T01:00:20;0.00;;;0.00;;
65375;SDS011;51976;47.332;9.404;2023-03-14T01:02:45;0.00;;;0.00;;
65375;SDS011;51976;47.332;9.404;2023-03-14T01:05:10;0.13;;;0.00;;
65375;SDS011;51976;47.332;9.404;2023-03-14T01:07:36;1.27;;;0.00;;
65375;SDS011;51976;47.332;9.404;2023-03-14T01:10:02;0.40;;;0.10;;
65375;SDS011;51976;47.332;9.404;2023-03-14T01:12:29;0.45;;;0.10;;
65375;SDS011;51976;47.332;9.404;2023-03-14T01:14:54;0.93;;;0.10;;
65375;SDS011;51976;47.332;9.404;2023-03-14T01:17:19;0.10;;;0.00;;
65375;SDS011;51976;47.332;9.404;2023-03-14T01:19:45;0.40;;;0.00;;
65375;SDS011;51976;47.332;9.404;2023-03-14T01:22:10;1.90;;;0.10;;
65375;SDS011;51976;47.332;9.404;2023-03-14T01:24:36;2.13;;;0.00;;
65375;SDS011;51976;47.332;9.404;2023-03-14T01:27:02;0.00;;;0.00;;
65375;SDS011;51976;47.332;9.404;2023-03-14T01:29:27;2.95;;;0.00;;
65375;SDS011;51976;47.332;9.404;2023-03-14T01:31:53;0.00;;;0.00;;
65375;SDS011;51976;47.332;9.404;2023-03-14T01:34:18;0.38;;;0.10;;
65375;SDS011;51976;47.332;9.404;2023-03-14T01:36:44;0.00;;;0.00;;
65375;SDS011;51976;47.332;9.404;2023-03-14T01:39:09;0.85;;;0.00;;
65375;SDS011;51976;47.332;9.404;2023-03-14T01:41:35;0.10;;;0.00;;
65375;SDS011;51976;47.332;9.404;2023-03-14T01:44:00;0.08;;;0.00;;
65375;SDS011;51976;47.332;9.404;2023-03-14T01:46:28;0.00;;;0.00;;
65375;SDS011;51976;47.332;9.404;2023-03-14T01:49:04;0.00;;;0.00;;
65375;SDS011;51976;47.332;9.404;2023-03-14T01:51:48;0.00;;;0.00;;
65375;SDS011;51976;47.332;9.404;2023-03-14T01:54:25;0.20;;;0.00;;
65375;SDS011;51976;47.332;9.404;2023-03-14T01:56:57;0.00;;;0.00;;
65375;SDS011;51976;47.332;9.404;2023-03-14T01:59:30;0.00;;;0.00;;
65375;SDS011;51976;47.332;9.404;2023-03-14T02:01:57;0.35;;;0.10;;
65375;SDS011;51976;47.332;9.404;2023-03-14T02:04:25;0.00;;;0.00;;
65375;SDS011;51976;47.332;9.404;2023-03-14T02:07:05;0.10;;;0.00;;
65375;SDS011;51976;47.332;9.404;2023-03-14T02:09:38;0.35;;;0.00;;
65375;SDS011;51976;47.332;9.404;2023-03-14T02:12:05;0.00;;;0.00;;
65375;SDS011;51976;47.332;9.404;2023-03-14T02:14:33;0.00;;;0.00;;
65375;SDS011;51976;47.332;9.404;2023-03-14T02:17:01;0.00;;;0.00;;
65375;SDS011;51976;47.332;9.404;2023-03-14T02:19:40;0.08;;;0.00;;
65375;SDS011;51976;47.332;9.404;2023-03-14T02:22:15;0.00;;;0.00;;
65375;SDS011;51976;47.332;9.404;2023-03-14T02:24:53;0.00;;;0.00;;
65375;SDS011;51976;47.332;9.404;2023-03-14T02:27:38;0.10;;;0.00;;
65375;SDS011;51976;47.332;9.404;2023-03-14T02:30:06;0.10;;;0.03;;
65375;SDS011;51976;47.332;9.404;2023-03-14T02:32:36;1.35;;;0.10;;
65375;SDS011;51976;47.332;9.404;2023-03-14T02:35:05;0.03;;;0.00;;
65375;SDS011;51976;47.332;9.404;2023-03-14T02:37:36;0.00;;;0.00;;
65375;SDS011;51976;47.332;9.404;2023-03-14T02:40:06;0.10;;;0.00;;
65375;SDS011;51976;47.332;9.404;2023-03-14T02:42:32;0.10;;;0.03;;
65375;SDS011;51976;47.332;9.404;2023-03-14T02:48:02;2.05;;;0.00;;
65375;SDS011;51976;47.332;9.404;2023-03-14T02:50:31;0.20;;;0.00;;
65375;SDS011;51976;47.332;9.404;2023-03-14T02:52:59;0.00;;;0.00;;
65375;SDS011;51976;47.332;9.404;2023-03-14T02:55:24;0.20;;;0.00;;
65375;SDS011;51976;47.332;9.404;2023-03-14T02:57:51;0.00;;;0.00;;
65375;SDS011;51976;47.332;9.404;2023-03-14T03:00:17;0.00;;;0.00;;
65375;SDS011;51976;47.332;9.404;2023-03-14T03:02:43;0.30;;;0.00;;
65375;SDS011;51976;47.332;9.404;2023-03-14T03:05:08;0.20;;;0.00;;
65375;SDS011;51976;47.332;9.404;2023-03-14T03:07:34;0.00;;;0.00;;
65375;SDS011;51976;47.332;9.404;2023-03-14T03:09:59;0.00;;;0.00;;
65375;SDS011;51976;47.332;9.404;2023-03-14T03:12:25;0.43;;;0.00;;
65375;SDS011;51976;47.332;9.404;2023-03-14T03:14:50;0.17;;;0.03;;
65375;SDS011;51976;47.332;9.404;2023-03-14T03:17:16;0.30;;;0.00;;
65375;SDS011;51976;47.332;9.404;2023-03-14T03:19:42;0.10;;;0.00;;
65375;SDS011;51976;47.332;9.404;2023-03-14T03:22:07;0.88;;;0.65;;
65375;SDS011;51976;47.332;9.404;2023-03-14T03:24:32;0.90;;;0.20;;
65375;SDS011;51976;47.332;9.404;2023-03-14T03:26:58;0.20;;;0.10;;
65375;SDS011;51976;47.332;9.404;2023-03-14T03:29:23;0.00;;;0.00;;
65375;SDS011;51976;47.332;9.404;2023-03-14T03:31:48;0.00;;;0.00;;
65375;SDS011;51976;47.332;9.404;2023-03-14T03:34:14;0.00;;;0.00;;
65375;SDS011;51976;47.332;9.404;2023-03-14T03:36:40;0.20;;;0.00;;
65375;SDS011;51976;47.332;9.404;2023-03-14T03:39:05;0.00;;;0.00;;
65375;SDS011;51976;47.332;9.404;2023-03-14T03:41:31;0.00;;;0.00;;
65375;SDS011;51976;47.332;9.404;2023-03-14T03:43:57;0.00;;;0.00;;
65375;SDS011;51976;47.332;9.404;2023-03-14T03:46:22;0.15;;;0.00;;
65375;SDS011;51976;47.332;9.404;2023-03-14T03:48:48;0.03;;;0.00;;
65375;SDS011;51976;47.332;9.404;2023-03-14T03:51:14;0.00;;;0.00;;
65375;SDS011;51976;47.332;9.404;2023-03-14T03:53:41;0.00;;;0.00;;
65375;SDS011;51976;47.332;9.404;2023-03-14T03:56:07;0.00;;;0.00;;
65375;SDS011;51976;47.332;9.404;2023-03-14T03:58:33;0.70;;;0.00;;
65375;SDS011;51976;47.332;9.404;2023-03-14T04:00:59;0.03;;;0.00;;
65375;SDS011;51976;47.332;9.404;2023-03-14T04:03:24;0.00;;;0.00;;
65375;SDS011;51976;47.332;9.404;2023-03-14T04:06:00;0.00;;;0.00;;
65375;SDS011;51976;47.332;9.404;2023-03-14T04:08:27;0.00;;;0.00;;
65375;SDS011;51976;47.332;9.404;2023-03-14T04:10:54;0.00;;;0.00;;
65375;SDS011;51976;47.332;9.404;2023-03-14T04:13:23;0.00;;;0.00;;
65375;SDS011;51976;47.332;9.404;2023-03-14T04:15:49;0.00;;;0.00;;
65375;SDS011;51976;47.332;9.404;2023-03-14T04:18:15;0.00;;;0.00;;
65375;SDS011;51976;47.332;9.404;2023-03-14T04:20:41;0.05;;;0.00;;
65375;SDS011;51976;47.332;9.404;2023-03-14T04:23:06;0.03;;;0.00;;
65375;SDS011;51976;47.332;9.404;2023-03-14T04:25:31;0.00;;;0.00;;
65375;SDS011;51976;47.332;9.404;2023-03-14T04:27:57;0.00;;;0.00;;
65375;SDS011;51976;47.332;9.404;2023-03-14T04:30:22;0.00;;;0.00;;
65375;SDS011;51976;47.332;9.404;2023-03-14T04:32:48;0.00;;;0.00;;
65375;SDS011;51976;47.332;9.404;2023-03-14T04:35:13;0.00;;;0.00;;
65375;SDS011;51976;47.332;9.404;2023-03-14T04:37:38;0.38;;;0.00;;
65375;SDS011;51976;47.332;9.404;2023-03-14T04:40:05;1.02;;;0.00;;
65375;SDS011;51976;47.332;9.404;2023-03-14T04:42:31;0.20;;;0.00;;
65375;SDS011;51976;47.332;9.404;2023-03-14T04:44:57;0.03;;;0.00;;
65375;SDS011;51976;47.332;9.404;2023-03-14T04:47:22;0.00;;;0.00;;
65375;SDS011;51976;47.332;9.404;2023-03-14T04:49:48;0.00;;;0.00;;
65375;SDS011;51976;47.332;9.404;2023-03-14T04:52:13;0.20;;;0.10;;
65375;SDS011;51976;47.332;9.404;2023-03-14T04:54:39;0.00;;;0.00;;
65375;SDS011;51976;47.332;9.404;2023-03-14T04:57:04;0.17;;;0.00;;
65375;SDS011;51976;47.332;9.404;2023-03-14T04:59:29;0.00;;;0.00;;
65375;SDS011;51976;47.332;9.404;2023-03-14T05:01:55;0.00;;;0.00;;
65375;SDS011;51976;47.332;9.404;2023-03-14T05:04:20;0.10;;;0.00;;
65375;SDS011;51976;47.332;9.404;2023-03-14T05:06:46;0.10;;;0.00;;
65375;SDS011;51976;47.332;9.404;2023-03-14T05:09:11;0.00;;;0.00;;
65375;SDS011;51976;47.332;9.404;2023-03-14T05:11:36;0.17;;;0.00;;
65375;SDS011;51976;47.332;9.404;2023-03-14T05:14:02;0.10;;;0.00;;
65375;SDS011;51976;47.332;9.404;2023-03-14T05:16:27;0.52;;;0.03;;
65375;SDS011;51976;47.332;9.404;2023-03-14T05:18:53;3.45;;;0.10;;
65375;SDS011;51976;47.332;9.404;2023-03-14T05:21:18;4.10;;;0.90;;
65375;SDS011;51976;47.332;9.404;2023-03-14T05:23:43;3.28;;;1.30;;
65375;SDS011;51976;47.332;9.404;2023-03-14T05:26:09;2.38;;;1.00;;
65375;SDS011;51976;47.332;9.404;2023-03-14T05:28:34;2.28;;;1.02;;
65375;SDS011;51976;47.332;9.404;2023-03-14T05:31:00;2.17;;;1.08;;
65375;SDS011;51976;47.332;9.404;2023-03-14T05:33:25;0.73;;;0.30;;
65375;SDS011;51976;47.332;9.404;2023-03-14T05:35:50;2.35;;;1.05;;
65375;SDS011;51976;47.332;9.404;2023-03-14T05:38:16;1.73;;;0.77;;
65375;SDS011;51976;47.332;9.404;2023-03-14T05:40:41;2.60;;;1.00;;
65375;SDS011;51976;47.332;9.404;2023-03-14T05:43:06;0.57;;;0.20;;
65375;SDS011;51976;47.332;9.404;2023-03-14T05:45:33;1.50;;;0.68;;
65375;SDS011;51976;47.332;9.404;2023-03-14T05:47:59;1.23;;;0.60;;
65375;SDS011;51976;47.332;9.404;2023-03-14T05:50:24;0.77;;;0.32;;
65375;SDS011;51976;47.332;9.404;2023-03-14T05:52:49;1.02;;;0.30;;
65375;SDS011;51976;47.332;9.404;2023-03-14T05:55:15;0.63;;;0.25;;
65375;SDS011;51976;47.332;9.404;2023-03-14T05:57:40;0.98;;;0.40;;
65375;SDS011;51976;47.332;9.404;2023-03-14T06:00:06;1.95;;;0.60;;
65375;SDS011;51976;47.332;9.404;2023-03-14T06:02:32;0.80;;;0.20;;
65375;SDS011;51976;47.332;9.404;2023-03-14T06:04:57;0.60;;;0.20;;
65375;SDS011;51976;47.332;9.404;2023-03-14T06:07:23;0.60;;;0.32;;
65375;SDS011;51976;47.332;9.404;2023-03-14T06:09:48;1.15;;;0.30;;
65375;SDS011;51976;47.332;9.404;2023-03-14T06:12:13;2.92;;;0.40;;
65375;SDS011;51976;47.332;9.404;2023-03-14T06:14:39;0.55;;;0.17;;
65375;SDS011;51976;47.332;9.404;2023-03-14T06:17:04;3.50;;;0.20;;
65375;SDS011;51976;47.332;9.404;2023-03-14T06:19:29;4.50;;;0.88;;
65375;SDS011;51976;47.332;9.404;2023-03-14T06:21:55;2.03;;;0.70;;
65375;SDS011;51976;47.332;9.404;2023-03-14T06:24:20;3.97;;;0.43;;
65375;SDS011;51976;47.332;9.404;2023-03-14T06:26:45;1.95;;;0.35;;
65375;SDS011;51976;47.332;9.404;2023-03-14T06:29:11;6.40;;;1.30;;
65375;SDS011;51976;47.332;9.404;2023-03-14T06:31:38;2.80;;;1.40;;
65375;SDS011;51976;47.332;9.404;2023-03-14T06:34:03;2.95;;;1.20;;
65375;SDS011;51976;47.332;9.404;2023-03-14T06:36:29;3.80;;;0.52;;
65375;SDS011;51976;47.332;9.404;2023-03-14T06:38:54;3.92;;;1.70;;
65375;SDS011;51976;47.332;9.404;2023-03-14T06:41:20;9.25;;;4.68;;
65375;SDS011;51976;47.332;9.404;2023-03-14T06:43:45;7.60;;;4.20;;
65375;SDS011;51976;47.332;9.404;2023-03-14T06:46:10;4.22;;;2.13;;
65375;SDS011;51976;47.332;9.404;2023-03-14T06:48:36;3.50;;;1.55;;
65375;SDS011;51976;47.332;9.404;2023-03-14T06:51:01;2.75;;;1.30;;
65375;SDS011;51976;47.332;9.404;2023-03-14T06:53:26;6.22;;;3.40;;
65375;SDS011;51976;47.332;9.404;2023-03-14T06:55:52;4.32;;;2.42;;
65375;SDS011;51976;47.332;9.404;2023-03-14T06:58:17;5.28;;;1.75;;
65375;SDS011;51976;47.332;9.404;2023-03-14T07:00:43;5.03;;;0.90;;
65375;SDS011;51976;47.332;9.404;2023-03-14T07:03:08;2.35;;;0.80;;
65375;SDS011;51976;47.332;9.404;2023-03-14T07:05:35;7.68;;;2.75;;
65375;SDS011;51976;47.332;9.404;2023-03-14T07:08:00;5.90;;;3.58;;
65375;SDS011;51976;47.332;9.404;2023-03-14T07:10:25;3.92;;;1.63;;
65375;SDS011;51976;47.332;9.404;2023-03-14T07:12:51;5.40;;;2.72;;
65375;SDS011;51976;47.332;9.404;2023-03-14T07:15:17;7.25;;;4.22;;
65375;SDS011;51976;47.332;9.404;2023-03-14T07:17:43;7.00;;;2.47;;
65375;SDS011;51976;47.332;9.404;2023-03-14T07:20:08;5.30;;;1.40;;
65375;SDS011;51976;47.332;9.404;2023-03-14T07:22:34;1.95;;;1.00;;
65375;SDS011;51976;47.332;9.404;2023-03-14T07:24:59;6.95;;;2.10;;
65375;SDS011;51976;47.332;9.404;2023-03-14T07:27:25;6.82;;;2.85;;
65375;SDS011;51976;47.332;9.404;2023-03-14T07:29:50;9.23;;;4.55;;
65375;SDS011;51976;47.332;9.404;2023-03-14T07:32:15;5.78;;;3.00;;
65375;SDS011;51976;47.332;9.404;2023-03-14T07:34:41;8.82;;;2.72;;
65375;SDS011;51976;47.332;9.404;2023-03-14T07:37:07;4.15;;;1.88;;
65375;SDS011;51976;47.332;9.404;2023-03-14T07:39:33;2.38;;;1.30;;
65375;SDS011;51976;47.332;9.404;2023-03-14T07:41:59;2.30;;;1.15;;
65375;SDS011;51976;47.332;9.404;2023-03-14T07:44:25;1.05;;;0.60;;
65375;SDS011;51976;47.332;9.404;2023-03-14T07:46:50;2.92;;;1.70;;
65375;SDS011;51976;47.332;9.404;2023-03-14T07:49:16;6.63;;;1.27;;
65375;SDS011;51976;47.332;9.404;2023-03-14T07:51:41;6.40;;;2.03;;
65375;SDS011;51976;47.332;9.404;2023-03-14T07:54:08;3.47;;;1.45;;
65375;SDS011;51976;47.332;9.404;2023-03-14T07:56:34;3.67;;;1.65;;
65375;SDS011;51976;47.332;9.404;2023-03-14T07:58:59;3.20;;;1.42;;
65375;SDS011;51976;47.332;9.404;2023-03-14T08:01:25;5.85;;;2.38;;
65375;SDS011;51976;47.332;9.404;2023-03-14T08:03:50;5.63;;;1.42;;
65375;SDS011;51976;47.332;9.404;2023-03-14T08:06:15;2.30;;;1.08;;
65375;SDS011;51976;47.332;9.404;2023-03-14T08:08:41;1.98;;;0.45;;
65375;SDS011;51976;47.332;9.404;2023-03-14T08:11:06;1.45;;;0.88;;
65375;SDS011;51976;47.332;9.404;2023-03-14T08:13:35;2.35;;;1.40;;
65375;SDS011;51976;47.332;9.404;2023-03-14T08:16:01;5.22;;;1.70;;
65375;SDS011;51976;47.332;9.404;2023-03-14T08:18:27;7.68;;;3.45;;
65375;SDS011;51976;47.332;9.404;2023-03-14T08:20:52;6.22;;;3.30;;
65375;SDS011;51976;47.332;9.404;2023-03-14T08:23:17;11.43;;;5.22;;
65375;SDS011;51976;47.332;9.404;2023-03-14T08:25:43;5.43;;;3.55;;
65375;SDS011;51976;47.332;9.404;2023-03-14T08:28:08;5.40;;;3.65;;
65375;SDS011;51976;47.332;9.404;2023-03-14T08:30:34;7.57;;;4.22;;
65375;SDS011;51976;47.332;9.404;2023-03-14T08:33:02;4.97;;;3.15;;
65375;SDS011;51976;47.332;9.404;2023-03-14T08:35:27;5.03;;;2.70;;
65375;SDS011;51976;47.332;9.404;2023-03-14T08:37:53;13.65;;;5.05;;
65375;SDS011;51976;47.332;9.404;2023-03-14T08:40:18;3.75;;;2.40;;
65375;SDS011;51976;47.332;9.404;2023-03-14T08:42:44;5.57;;;2.90;;
65375;SDS011;51976;47.332;9.404;2023-03-14T08:45:13;1.67;;;0.90;;
65375;SDS011;51976;47.332;9.404;2023-03-14T08:47:41;6.35;;;2.63;;
65375;SDS011;51976;47.332;9.404;2023-03-14T08:50:07;2.35;;;1.30;;
65375;SDS011;51976;47.332;9.404;2023-03-14T08:52:34;4.65;;;2.20;;
65375;SDS011;51976;47.332;9.404;2023-03-14T08:54:59;5.68;;;1.98;;
65375;SDS011;51976;47.332;9.404;2023-03-14T08:57:25;4.85;;;1.45;;
65375;SDS011;51976;47.332;9.404;2023-03-14T08:59:54;3.08;;;1.88;;
65375;SDS011;51976;47.332;9.404;2023-03-14T09:02:20;3.15;;;1.27;;
65375;SDS011;51976;47.332;9.404;2023-03-14T09:04:46;3.75;;;1.00;;
65375;SDS011;51976;47.332;9.404;2023-03-14T09:07:12;7.15;;;1.48;;
65375;SDS011;51976;47.332;9.404;2023-03-14T09:09:37;9.70;;;1.58;;
65375;SDS011;51976;47.332;9.404;2023-03-14T09:12:03;5.35;;;1.05;;
65375;SDS011;51976;47.332;9.404;2023-03-14T09:14:29;3.10;;;1.10;;
65375;SDS011;51976;47.332;9.404;2023-03-14T09:16:55;2.70;;;1.00;;
65375;SDS011;51976;47.332;9.404;2023-03-14T09:19:21;1.70;;;0.70;;
65375;SDS011;51976;47.332;9.404;2023-03-14T09:21:46;2.55;;;1.10;;
65375;SDS011;51976;47.332;9.404;2023-03-14T09:24:12;0.82;;;0.40;;
65375;SDS011;51976;47.332;9.404;2023-03-14T09:26:37;0.57;;;0.32;;
65375;SDS011;51976;47.332;9.404;2023-03-14T09:29:03;0.70;;;0.30;;
65375;SDS011;51976;47.332;9.404;2023-03-14T09:31:28;4.47;;;0.70;;
65375;SDS011;51976;47.332;9.404;2023-03-14T09:33:56;22.00;;;1.00;;
65375;SDS011;51976;47.332;9.404;2023-03-14T09:36:22;1.40;;;0.38;;
65375;SDS011;51976;47.332;9.404;2023-03-14T09:38:50;1.05;;;0.20;;
65375;SDS011;51976;47.332;9.404;2023-03-14T09:41:16;0.20;;;0.10;;
65375;SDS011;51976;47.332;9.404;2023-03-14T09:43:46;6.15;;;1.17;;
65375;SDS011;51976;47.332;9.404;2023-03-14T09:46:16;4.05;;;1.40;;
65375;SDS011;51976;47.332;9.404;2023-03-14T09:48:41;16.27;;;8.38;;
65375;SDS011;51976;47.332;9.404;2023-03-14T09:51:12;1.23;;;0.60;;
65375;SDS011;51976;47.332;9.404;2023-03-14T09:53:42;2.75;;;1.25;;
65375;SDS011;51976;47.332;9.404;2023-03-14T09:56:14;4.03;;;2.05;;
65375;SDS011;51976;47.332;9.404;2023-03-14T09:58:44;5.70;;;1.23;;
65375;SDS011;51976;47.332;9.404;2023-03-14T10:01:14;3.45;;;1.15;;
65375;SDS011;51976;47.332;9.404;2023-03-14T10:03:43;4.38;;;1.30;;
65375;SDS011;51976;47.332;9.404;2023-03-14T10:06:11;1.83;;;1.15;;
65375;SDS011;51976;47.332;9.404;2023-03-14T10:08:41;2.63;;;1.58;;
65375;SDS011;51976;47.332;9.404;2023-03-14T10:11:15;1.02;;;0.55;;
65375;SDS011;51976;47.332;9.404;2023-03-14T10:13:48;2.40;;;0.80;;
65375;SDS011;51976;47.332;9.404;2023-03-14T10:16:35;2.15;;;0.30;;
65375;SDS011;51976;47.332;9.404;2023-03-14T10:19:11;4.75;;;0.30;;
65375;SDS011;51976;47.332;9.404;2023-03-14T10:21:42;2.35;;;0.60;;
65375;SDS011;51976;47.332;9.404;2023-03-14T10:24:16;0.63;;;0.32;;
65375;SDS011;51976;47.332;9.404;2023-03-14T10:26:47;2.35;;;1.38;;
65375;SDS011;51976;47.332;9.404;2023-03-14T10:29:15;3.28;;;1.95;;
65375;SDS011;51976;47.332;9.404;2023-03-14T10:31:48;7.45;;;3.97;;
65375;SDS011;51976;47.332;9.404;2023-03-14T10:34:17;16.20;;;1.15;;
65375;SDS011;51976;47.332;9.404;2023-03-14T10:36:51;9.50;;;0.82;;
65375;SDS011;51976;47.332;9.404;2023-03-14T10:39:32;1.83;;;0.93;;
65375;SDS011;51976;47.332;9.404;2023-03-14T10:42:21;2.53;;;0.50;;
65375;SDS011;51976;47.332;9.404;2023-03-14T10:44:55;6.00;;;2.10;;
65375;SDS011;51976;47.332;9.404;2023-03-14T10:47:24;2.42;;;1.00;;
65375;SDS011;51976;47.332;9.404;2023-03-14T10:49:53;8.38;;;1.30;;
65375;SDS011;51976;47.332;9.404;2023-03-14T10:52:22;11.98;;;2.33;;
65375;SDS011;51976;47.332;9.404;2023-03-14T10:54:54;3.88;;;0.70;;
65375;SDS011;51976;47.332;9.404;2023-03-14T10:57:22;3.53;;;1.92;;
65375;SDS011;51976;47.332;9.404;2023-03-14T10:59:48;3.28;;;1.10;;
65375;SDS011;51976;47.332;9.404;2023-03-14T11:02:19;2.10;;;1.08;;
65375;SDS011;51976;47.332;9.404;2023-03-14T11:05:03;1.40;;;0.75;;
65375;SDS011;51976;47.332;9.404;2023-03-14T11:07:45;2.58;;;0.77;;
65375;SDS011;51976;47.332;9.404;2023-03-14T11:13:15;2.03;;;1.15;;
65375;SDS011;51976;47.332;9.404;2023-03-14T11:15:57;1.35;;;0.65;;
65375;SDS011;51976;47.332;9.404;2023-03-14T11:21:56;1.23;;;0.60;;
65375;SDS011;51976;47.332;9.404;2023-03-14T11:24:44;1.30;;;0.32;;
65375;SDS011;51976;47.332;9.404;2023-03-14T11:27:34;0.20;;;0.10;;
65375;SDS011;51976;47.332;9.404;2023-03-14T11:30:18;1.65;;;0.60;;
65375;SDS011;51976;47.332;9.404;2023-03-14T11:33:03;1.63;;;0.80;;
65375;SDS011;51976;47.332;9.404;2023-03-14T11:35:45;0.93;;;0.40;;
65375;SDS011;51976;47.332;9.404;2023-03-14T11:38:55;2.15;;;1.10;;
65375;SDS011;51976;47.332;9.404;2023-03-14T11:41:36;1.13;;;0.50;;
65375;SDS011;51976;47.332;9.404;2023-03-14T11:44:20;2.15;;;1.10;;
65375;SDS011;51976;47.332;9.404;2023-03-14T11:47:00;2.72;;;1.25;;
65375;SDS011;51976;47.332;9.404;2023-03-14T11:49:38;3.92;;;2.17;;
65375;SDS011;51976;47.332;9.404;2023-03-14T11:52:20;8.65;;;2.25;;
65375;SDS011;51976;47.332;9.404;2023-03-14T11:54:56;2.92;;;0.38;;
65375;SDS011;51976;47.332;9.404;2023-03-14T11:57:27;5.35;;;2.72;;
65375;SDS011;51976;47.332;9.404;2023-03-14T12:00:00;5.80;;;3.25;;
65375;SDS011;51976;47.332;9.404;2023-03-14T12:03:00;3.33;;;1.65;;
65375;SDS011;51976;47.332;9.404;2023-03-14T12:05:58;3.35;;;1.85;;
65375;SDS011;51976;47.332;9.404;2023-03-14T12:08:45;4.78;;;2.45;;
65375;SDS011;51976;47.332;9.404;2023-03-14T12:11:21;4.45;;;1.65;;
65375;SDS011;51976;47.332;9.404;2023-03-14T12:13:59;6.65;;;2.22;;
65375;SDS011;51976;47.332;9.404;2023-03-14T12:16:27;6.30;;;0.95;;
65375;SDS011;51976;47.332;9.404;2023-03-14T12:18:57;0.77;;;0.40;;
65375;SDS011;51976;47.332;9.404;2023-03-14T12:21:48;8.23;;;2.67;;
65375;SDS011;51976;47.332;9.404;2023-03-14T12:24:18;3.83;;;2.20;;
65375;SDS011;51976;47.332;9.404;2023-03-14T12:26:52;3.83;;;1.25;;
65375;SDS011;51976;47.332;9.404;2023-03-14T12:29:23;3.47;;;0.70;;
65375;SDS011;51976;47.332;9.404;2023-03-14T12:31:49;4.80;;;0.90;;
65375;SDS011;51976;47.332;9.404;2023-03-14T12:34:43;8.07;;;1.98;;
65375;SDS011;51976;47.332;9.404;2023-03-14T12:37:20;5.70;;;2.45;;
65375;SDS011;51976;47.332;9.404;2023-03-14T12:40:12;1.42;;;0.80;;
65375;SDS011;51976;47.332;9.404;2023-03-14T12:42:54;2.10;;;1.30;;
65375;SDS011;51976;47.332;9.404;2023-03-14T12:45:28;6.35;;;1.23;;
65375;SDS011;51976;47.332;9.404;2023-03-14T12:48:03;5.75;;;1.35;;
65375;SDS011;51976;47.332;9.404;2023-03-14T12:50:43;3.30;;;1.40;;
65375;SDS011;51976;47.332;9.404;2023-03-14T12:53:24;5.22;;;1.70;;
65375;SDS011;51976;47.332;9.404;2023-03-14T12:56:20;2.85;;;1.55;;
65375;SDS011;51976;47.332;9.404;2023-03-14T12:59:04;1.90;;;0.52;;
65375;SDS011;51976;47.332;9.404;2023-03-14T13:01:46;5.43;;;1.05;;
65375;SDS011;51976;47.332;9.404;2023-03-14T13:04:18;6.40;;;2.22;;
65375;SDS011;51976;47.332;9.404;2023-03-14T13:06:54;1.08;;;0.28;;
65375;SDS011;51976;47.332;9.404;2023-03-14T13:09:36;1.67;;;0.80;;
65375;SDS011;51976;47.332;9.404;2023-03-14T13:12:27;1.10;;;0.70;;
65375;SDS011;51976;47.332;9.404;2023-03-14T13:14:57;3.78;;;0.60;;
65375;SDS011;51976;47.332;9.404;2023-03-14T13:17:27;1.35;;;0.00;;
65375;SDS011;51976;47.332;9.404;2023-03-14T13:19:56;1.45;;;0.10;;
65375;SDS011;51976;47.332;9.404;2023-03-14T13:22:26;1.13;;;0.10;;
65375;SDS011;51976;47.332;9.404;2023-03-14T13:25:00;0.73;;;0.20;;
65375;SDS011;51976;47.332;9.404;2023-03-14T13:27:29;1.77;;;0.20;;
65375;SDS011;51976;47.332;9.404;2023-03-14T13:29:56;0.47;;;0.10;;
65375;SDS011;51976;47.332;9.404;2023-03-14T13:32:25;0.80;;;0.10;;
65375;SDS011;51976;47.332;9.404;2023-03-14T13:34:56;1.15;;;0.20;;
65375;SDS011;51976;47.332;9.404;2023-03-14T13:37:23;0.40;;;0.20;;
65375;SDS011;51976;47.332;9.404;2023-03-14T13:39:50;1.15;;;0.60;;
65375;SDS011;51976;47.332;9.404;2023-03-14T13:42:18;1.08;;;0.60;;
65375;SDS011;51976;47.332;9.404;2023-03-14T13:44:44;3.33;;;1.40;;
65375;SDS011;51976;47.332;9.404;2023-03-14T13:47:12;2.85;;;1.48;;
65375;SDS011;51976;47.332;9.404;2023-03-14T13:49:41;3.38;;;1.83;;
65375;SDS011;51976;47.332;9.404;2023-03-14T13:52:30;3.53;;;1.63;;
65375;SDS011;51976;47.332;9.404;2023-03-14T13:54:57;2.97;;;1.23;;
65375;SDS011;51976;47.332;9.404;2023-03-14T13:57:24;2.03;;;0.70;;
65375;SDS011;51976;47.332;9.404;2023-03-14T13:59:59;0.50;;;0.25;;
65375;SDS011;51976;47.332;9.404;2023-03-14T14:02:26;4.22;;;1.45;;
65375;SDS011;51976;47.332;9.404;2023-03-14T14:04:53;3.05;;;1.38;;
65375;SDS011;51976;47.332;9.404;2023-03-14T14:07:18;4.82;;;1.80;;
65375;SDS011;51976;47.332;9.404;2023-03-14T14:09:47;1.02;;;0.50;;
65375;SDS011;51976;47.332;9.404;2023-03-14T14:12:26;3.03;;;1.30;;
65375;SDS011;51976;47.332;9.404;2023-03-14T14:14:59;3.08;;;1.30;;
65375;SDS011;51976;47.332;9.404;2023-03-14T14:17:32;2.30;;;0.80;;
65375;SDS011;51976;47.332;9.404;2023-03-14T14:20:07;3.78;;;1.58;;
65375;SDS011;51976;47.332;9.404;2023-03-14T14:22:37;3.03;;;1.48;;
65375;SDS011;51976;47.332;9.404;2023-03-14T14:25:03;3.78;;;1.02;;
65375;SDS011;51976;47.332;9.404;2023-03-14T14:27:32;2.50;;;1.40;;
65375;SDS011;51976;47.332;9.404;2023-03-14T14:30:03;6.25;;;1.95;;
65375;SDS011;51976;47.332;9.404;2023-03-14T14:32:34;4.28;;;2.15;;
65375;SDS011;51976;47.332;9.404;2023-03-14T14:35:04;1.10;;;0.50;;
65375;SDS011;51976;47.332;9.404;2023-03-14T14:37:32;1.35;;;0.40;;
65375;SDS011;51976;47.332;9.404;2023-03-14T14:40:01;3.13;;;0.68;;
65375;SDS011;51976;47.332;9.404;2023-03-14T14:42:41;2.85;;;1.52;;
65375;SDS011;51976;47.332;9.404;2023-03-14T14:45:09;1.90;;;1.15;;
65375;SDS011;51976;47.332;9.404;2023-03-14T14:47:47;4.70;;;1.08;;
65375;SDS011;51976;47.332;9.404;2023-03-14T14:50:20;3.20;;;0.68;;
65375;SDS011;51976;47.332;9.404;2023-03-14T14:52:59;1.77;;;0.60;;
65375;SDS011;51976;47.332;9.404;2023-03-14T14:55:34;1.58;;;0.50;;
65375;SDS011;51976;47.332;9.404;2023-03-14T14:58:18;1.30;;;0.90;;
65375;SDS011;51976;47.332;9.404;2023-03-14T15:00:54;0.77;;;0.38;;
65375;SDS011;51976;47.332;9.404;2023-03-14T15:03:32;1.98;;;0.80;;
65375;SDS011;51976;47.332;9.404;2023-03-14T15:05:59;1.75;;;0.75;;
65375;SDS011;51976;47.332;9.404;2023-03-14T15:08:26;1.27;;;0.20;;
65375;SDS011;51976;47.332;9.404;2023-03-14T15:10:52;1.48;;;0.80;;